createdAt,value
2023-03-27T00:00:00.666Z,96836.72
2023-03-27T00:02:37.106Z,96819.56
2023-03-27T00:05:13.189Z,96837.78
2023-03-27T00:07:45.364Z,96819.84
2023-03-27T00:10:19.046Z,96835.81
2023-03-27T00:12:48.140Z,96834.56
2023-03-27T00:15:25.995Z,96829.06
2023-03-27T00:17:58.955Z,96817.44
2023-03-27T00:20:32.448Z,96827.44
2023-03-27T00:23:09.690Z,96822.13
2023-03-27T00:25:52.601Z,96810.13
2023-03-27T00:28:28.502Z,96817.38
2023-03-27T00:31:12.819Z,96792.88
2023-03-27T00:33:48.408Z,96791.00
2023-03-27T00:36:18.046Z,96788.16
2023-03-27T00:38:46.191Z,96791.16
2023-03-27T00:41:19.683Z,96788.00
2023-03-27T00:43:52.630Z,96795.50
2023-03-27T00:46:43.523Z,96771.31
2023-03-27T00:49:41.527Z,96791.88
2023-03-27T00:52:15.234Z,96780.28
2023-03-27T00:54:48.768Z,96793.47
2023-03-27T00:57:24.660Z,96795.25
2023-03-27T00:59:58.247Z,96800.88
2023-03-27T01:02:31.468Z,96808.34
2023-03-27T01:04:59.935Z,96810.25
2023-03-27T01:07:31.660Z,96810.31
2023-03-27T01:10:02.840Z,96828.31
2023-03-27T01:12:43.812Z,96813.03
2023-03-27T01:15:45.391Z,96835.53
2023-03-27T01:18:44.522Z,96846.78
2023-03-27T01:21:42.525Z,96851.91
2023-03-27T01:24:47.915Z,96805.00
2023-03-27T01:27:47.442Z,96857.53
2023-03-27T01:30:55.495Z,96865.84
2023-03-27T01:33:53.747Z,96882.81
2023-03-27T01:36:46.926Z,96889.25
2023-03-27T01:39:34.863Z,96885.13
2023-03-27T01:42:56.868Z,96886.44
2023-03-27T01:45:41.015Z,96884.09
2023-03-27T01:48:32.795Z,96872.88
2023-03-27T01:51:40.049Z,96842.19
2023-03-27T01:54:31.990Z,96872.00
2023-03-27T01:57:30.244Z,96870.75
2023-03-27T02:00:20.399Z,96872.31
2023-03-27T02:03:04.046Z,96857.56
2023-03-27T02:05:50.410Z,96851.25
2023-03-27T02:08:42.040Z,96875.25
2023-03-27T02:11:33.840Z,96886.53
2023-03-27T02:14:20.484Z,96884.28
2023-03-27T02:17:14.527Z,96876.34
2023-03-27T02:19:57.793Z,96885.31
2023-03-27T02:22:37.520Z,96874.13
2023-03-27T02:25:56.533Z,96849.16
2023-03-27T02:28:58.080Z,96875.88
2023-03-27T02:31:51.058Z,96868.59
2023-03-27T02:34:31.157Z,96860.09
2023-03-27T02:37:36.076Z,96866.38
2023-03-27T02:40:57.356Z,96844.91
2023-03-27T02:44:15.260Z,96863.31
2023-03-27T02:47:17.857Z,96868.69
2023-03-27T02:49:54.657Z,96863.91
2023-03-27T02:52:51.268Z,96878.22
2023-03-27T02:55:41.429Z,96882.09
2023-03-27T02:58:22.950Z,96861.41
2023-03-27T03:01:06.490Z,96870.69
2023-03-27T03:03:56.038Z,96876.13
2023-03-27T03:06:44.745Z,96875.56
2023-03-27T03:09:15.358Z,96884.13
2023-03-27T03:11:54.665Z,96891.31
2023-03-27T03:14:35.895Z,96886.47
2023-03-27T03:17:13.773Z,96900.09
2023-03-27T03:19:52.274Z,96893.06
2023-03-27T03:22:21.652Z,96897.75
2023-03-27T03:24:55.398Z,96895.56
2023-03-27T03:27:36.074Z,96895.00
2023-03-27T03:30:16.699Z,96895.06
2023-03-27T03:33:17.875Z,96904.91
2023-03-27T03:35:54.241Z,96828.91
2023-03-27T03:38:42.783Z,96893.34
2023-03-27T03:41:18.321Z,96908.22
2023-03-27T03:43:58.434Z,96911.00
2023-03-27T03:46:29.719Z,96895.00
2023-03-27T03:49:09.072Z,96901.22
2023-03-27T03:51:40.118Z,96912.88
2023-03-27T03:54:10.252Z,96919.03
2023-03-27T03:56:44.915Z,96914.06
2023-03-27T03:59:25.416Z,96925.53
2023-03-27T04:02:31.461Z,96935.22
2023-03-27T04:05:14.417Z,96936.13
2023-03-27T04:07:46.886Z,96920.59
2023-03-27T04:10:26.624Z,96932.31
2023-03-27T04:13:02.246Z,96915.81
2023-03-27T04:15:50.075Z,96928.53
2023-03-27T04:18:30.649Z,96929.94
2023-03-27T04:21:08.577Z,96926.19
2023-03-27T04:23:42.396Z,96924.72
2023-03-27T04:29:45.468Z,96922.16
2023-03-27T04:32:43.867Z,96928.00
2023-03-27T04:35:33.710Z,96932.31
2023-03-27T04:38:20.220Z,96922.34
2023-03-27T04:41:08.308Z,96939.94
2023-03-27T04:43:40.424Z,96944.34
2023-03-27T04:46:22.515Z,96959.03
2023-03-27T04:49:07.164Z,96967.91
2023-03-27T04:52:06.745Z,96967.97
2023-03-27T04:54:35.410Z,96963.75
2023-03-27T04:57:13.639Z,96953.69
2023-03-27T04:59:53.675Z,96965.78
2023-03-27T05:02:46.101Z,96968.31
2023-03-27T05:05:25.522Z,96952.78
2023-03-27T05:07:58.213Z,96958.16
2023-03-27T05:10:32.920Z,96965.19
2023-03-27T05:13:06.110Z,96964.97
2023-03-27T05:15:42.014Z,96961.41
2023-03-27T05:18:19.389Z,96958.78
2023-03-27T05:21:01.919Z,96951.84
2023-03-27T05:23:44.852Z,96953.75
2023-03-27T05:26:19.868Z,96933.53
2023-03-27T05:28:54.618Z,96950.84
2023-03-27T05:31:31.032Z,96909.69
2023-03-27T05:34:24.558Z,96945.81
2023-03-27T05:36:59.442Z,96954.41
2023-03-27T05:39:31.825Z,96941.34
2023-03-27T05:42:03.591Z,96948.38
2023-03-27T05:44:39.680Z,96950.06
2023-03-27T05:47:10.743Z,96949.09
2023-03-27T05:49:57.537Z,96963.91
2023-03-27T05:52:33.447Z,96958.28
2023-03-27T05:57:49.208Z,96967.94
2023-03-27T06:00:27.268Z,96967.63
2023-03-27T06:03:02.164Z,96976.44
2023-03-27T06:06:00.284Z,96976.44
2023-03-27T06:08:35.332Z,96986.09
2023-03-27T06:11:18.670Z,96992.94
2023-03-27T06:13:48.139Z,96995.63
2023-03-27T06:16:29.716Z,96995.22
2023-03-27T06:19:24.753Z,96993.91
2023-03-27T06:22:09.628Z,96999.22
2023-03-27T06:25:00.527Z,96997.41
2023-03-27T06:27:32.171Z,97007.41
2023-03-27T06:30:08.647Z,97010.78
2023-03-27T06:32:39.786Z,97016.88
2023-03-27T06:35:31.974Z,96949.19
2023-03-27T06:38:21.963Z,97018.22
2023-03-27T06:41:02.959Z,97025.66
2023-03-27T06:44:13.489Z,97004.19
2023-03-27T06:47:04.508Z,97033.22
2023-03-27T06:49:56.653Z,97020.41
2023-03-27T06:52:25.424Z,97026.91
2023-03-27T06:55:06.359Z,97042.19
2023-03-27T06:57:54.688Z,97023.22
2023-03-27T07:00:28.963Z,97042.66
2023-03-27T07:03:34.418Z,97028.53
2023-03-27T07:06:41.139Z,97034.19
2023-03-27T07:09:14.636Z,97046.09
2023-03-27T07:11:58.951Z,97052.41
2023-03-27T07:14:26.627Z,97068.13
2023-03-27T07:16:56.092Z,97060.94
2023-03-27T07:19:35.550Z,97065.59
2023-03-27T07:22:14.819Z,97067.78
2023-03-27T07:24:48.611Z,97070.50
2023-03-27T07:27:23.003Z,97068.69
2023-03-27T07:32:44.471Z,97076.88
2023-03-27T07:35:15.559Z,97075.03
2023-03-27T07:38:18.875Z,97074.50
2023-03-27T07:41:12.491Z,97082.84
2023-03-27T07:43:58.333Z,97079.06
2023-03-27T07:46:33.173Z,97062.25
2023-03-27T07:49:11.729Z,97078.81
2023-03-27T07:51:44.671Z,97078.19
2023-03-27T07:54:15.476Z,97094.16
2023-03-27T07:57:02.404Z,97084.47
2023-03-27T08:00:14.730Z,97089.34
2023-03-27T08:02:49.368Z,97078.81
2023-03-27T08:05:19.061Z,97110.72
2023-03-27T08:08:02.081Z,97106.38
2023-03-27T08:11:09.653Z,97107.28
2023-03-27T08:13:44.385Z,97103.72
2023-03-27T08:16:20.235Z,97103.91
2023-03-27T08:21:59.288Z,97114.72
2023-03-27T08:24:29.915Z,97111.34
2023-03-27T08:27:20.548Z,97104.53
2023-03-27T08:29:51.072Z,97108.78
2023-03-27T08:32:22.469Z,97108.63
2023-03-27T08:34:52.845Z,97100.19
2023-03-27T08:37:27.473Z,97113.16
2023-03-27T08:40:36.919Z,97110.06
2023-03-27T08:43:51.119Z,97121.72
2023-03-27T08:46:49.812Z,97117.84
2023-03-27T08:49:23.016Z,97128.38
2023-03-27T08:52:24.812Z,97128.06
2023-03-27T08:55:45.455Z,97144.38
2023-03-27T08:58:22.108Z,97145.06
2023-03-27T09:01:14.926Z,97152.34
2023-03-27T09:04:05.837Z,97144.06
2023-03-27T09:07:17.904Z,97163.53
2023-03-27T09:10:37.936Z,97154.47
2023-03-27T09:13:51.302Z,97156.09
2023-03-27T09:16:51.633Z,97149.44
2023-03-27T09:19:46.727Z,97148.47
2023-03-27T09:22:32.334Z,97152.53
2023-03-27T09:25:32.597Z,97159.00
2023-03-27T09:28:51.844Z,97151.22
2023-03-27T09:31:36.244Z,97168.22
2023-03-27T09:34:26.032Z,97166.28
2023-03-27T09:37:10.022Z,97166.13
2023-03-27T09:40:02.255Z,97141.00
2023-03-27T09:42:46.964Z,97178.63
2023-03-27T09:45:16.753Z,97172.75
2023-03-27T09:48:02.750Z,97163.53
2023-03-27T09:50:55.207Z,97159.31
2023-03-27T09:53:36.267Z,97170.00
2023-03-27T09:56:16.970Z,97163.97
2023-03-27T09:58:52.244Z,97161.66
2023-03-27T10:01:38.314Z,97179.59
2023-03-27T10:04:31.589Z,97186.06
2023-03-27T10:07:14.859Z,97185.59
2023-03-27T10:10:44.051Z,97192.41
2023-03-27T10:13:32.029Z,97180.38
2023-03-27T10:16:06.035Z,97179.94
2023-03-27T10:22:24.237Z,97183.25
2023-03-27T10:24:56.204Z,97192.63
2023-03-27T10:31:08.684Z,97195.53
2023-03-27T10:33:53.971Z,97207.00
2023-03-27T10:36:54.124Z,97203.44
2023-03-27T10:39:58.528Z,97205.38
2023-03-27T10:42:52.923Z,97208.28
2023-03-27T10:45:24.250Z,97199.59
2023-03-27T10:48:51.096Z,97211.41
2023-03-27T10:51:57.565Z,97201.78
2023-03-27T10:55:12.695Z,97208.69
2023-03-27T10:57:50.591Z,97207.97
2023-03-27T11:00:35.089Z,97204.06
2023-03-27T11:03:31.751Z,97213.31
2023-03-27T11:06:27.288Z,97205.78
2023-03-27T11:09:24.314Z,97216.69
2023-03-27T11:12:20.358Z,97215.13
2023-03-27T11:15:22.359Z,97221.88
2023-03-27T11:18:33.671Z,97218.31
2023-03-27T11:21:53.387Z,97228.69
2023-03-27T11:25:05.372Z,97229.28
2023-03-27T11:27:58.924Z,97236.44
2023-03-27T11:30:58.774Z,97237.88
2023-03-27T11:34:28.842Z,97241.16
2023-03-27T11:38:00.786Z,97246.91
2023-03-27T11:40:53.476Z,97249.44
2023-03-27T11:43:25.841Z,97251.94
2023-03-27T11:46:25.865Z,97256.97
2023-03-27T11:49:44.293Z,97260.63
2023-03-27T11:56:21.388Z,97254.91
2023-03-27T12:02:43.051Z,97254.28
2023-03-27T12:06:01.342Z,97260.69
2023-03-27T12:08:51.078Z,97256.22
2023-03-27T12:11:37.406Z,97261.56
2023-03-27T12:14:40.153Z,97258.19
2023-03-27T12:17:45.663Z,97242.38
2023-03-27T12:23:56.681Z,97248.06
2023-03-27T12:26:49.147Z,97253.94
2023-03-27T12:30:16.224Z,97253.53
2023-03-27T12:33:33.748Z,97264.38
2023-03-27T12:36:16.582Z,97266.97
2023-03-27T12:38:50.374Z,97259.72
2023-03-27T12:41:36.252Z,97267.31
2023-03-27T12:44:21.998Z,97267.06
2023-03-27T12:47:27.285Z,97267.00
2023-03-27T12:50:40.437Z,97260.63
2023-03-27T12:53:45.138Z,97263.28
2023-03-27T12:56:24.577Z,97271.69
2023-03-27T13:02:02.483Z,97273.09
2023-03-27T13:04:54.186Z,97278.31
2023-03-27T13:07:53.484Z,97270.94
2023-03-27T13:11:08.270Z,97256.44
2023-03-27T13:14:00.252Z,97266.72
2023-03-27T13:16:50.397Z,97266.25
2023-03-27T13:19:47.041Z,97278.31
2023-03-27T13:22:37.022Z,97275.03
2023-03-27T13:25:33.082Z,97290.19
2023-03-27T13:28:27.978Z,97292.34
2023-03-27T13:31:13.818Z,97300.69
2023-03-27T13:34:22.871Z,97299.50
2023-03-27T13:37:05.865Z,97301.81
2023-03-27T13:42:36.612Z,97320.41
2023-03-27T13:45:26.540Z,97316.31
2023-03-27T13:48:44.000Z,97326.81
2023-03-27T13:52:15.949Z,97334.09
2023-03-27T14:02:41.829Z,97351.28
2023-03-27T14:05:47.280Z,97362.66
2023-03-27T14:08:35.550Z,97363.31
2023-03-27T14:12:03.541Z,97366.97
2023-03-27T14:15:43.360Z,97376.84
2023-03-27T14:19:00.360Z,97372.53
2023-03-27T14:21:38.901Z,97366.94
2023-03-27T14:24:25.318Z,97367.84
2023-03-27T14:27:07.583Z,97379.19
2023-03-27T14:29:48.622Z,97363.84
2023-03-27T14:32:34.756Z,97376.63
2023-03-27T14:35:12.186Z,97367.03
2023-03-27T14:37:57.036Z,97392.25
2023-03-27T14:40:49.944Z,97389.38
2023-03-27T14:43:35.834Z,97419.69
2023-03-27T14:46:17.755Z,97400.50
2023-03-27T14:48:51.577Z,97408.22
2023-03-27T14:51:27.560Z,97411.09
2023-03-27T14:54:05.034Z,97403.19
2023-03-27T14:56:49.722Z,97422.91
2023-03-27T14:59:47.854Z,97405.03
2023-03-27T15:02:30.612Z,97436.56
2023-03-27T15:05:16.027Z,97419.91
2023-03-27T15:07:49.690Z,97435.97
2023-03-27T15:10:41.259Z,97453.13
2023-03-27T15:13:16.967Z,97437.00
2023-03-27T15:15:50.923Z,97441.66
2023-03-27T15:18:24.862Z,97460.94
2023-03-27T15:20:56.040Z,97472.53
2023-03-27T15:23:50.499Z,97473.59
2023-03-27T15:26:34.111Z,97487.38
2023-03-27T15:29:34.146Z,97491.41
2023-03-27T15:32:14.638Z,97496.75
2023-03-27T15:35:04.006Z,97494.78
2023-03-27T15:37:35.053Z,97490.06
2023-03-27T15:40:10.903Z,97509.41
2023-03-27T15:43:23.371Z,97542.81
2023-03-27T15:46:15.626Z,97523.81
2023-03-27T15:48:56.587Z,97541.03
2023-03-27T15:51:35.441Z,97534.75
2023-03-27T15:54:24.948Z,97548.78
2023-03-27T15:57:10.674Z,97567.09
2023-03-27T15:59:53.578Z,97561.16
2023-03-27T16:02:28.964Z,97516.63
2023-03-27T16:04:59.361Z,97570.69
2023-03-27T16:07:46.597Z,97549.16
2023-03-27T16:13:02.768Z,97590.22
2023-03-27T16:16:03.304Z,97591.03
2023-03-27T16:18:39.226Z,97613.09
2023-03-27T16:21:16.370Z,97603.16
2023-03-27T16:23:46.680Z,97607.00
2023-03-27T16:26:21.246Z,97610.78
2023-03-27T16:28:50.703Z,97626.63
2023-03-27T16:31:20.259Z,97619.50
2023-03-27T16:33:50.754Z,97632.72
2023-03-27T16:36:41.600Z,97613.22
2023-03-27T16:39:16.263Z,97637.88
2023-03-27T16:41:49.531Z,97650.06
2023-03-27T16:44:17.254Z,97637.13
2023-03-27T16:46:53.394Z,97655.69
2023-03-27T16:49:37.461Z,97658.94
2023-03-27T16:52:06.854Z,97647.09
2023-03-27T16:54:40.163Z,97680.78
2023-03-27T16:57:15.837Z,97672.81
2023-03-27T16:59:47.588Z,97681.47
2023-03-27T17:02:19.150Z,97689.28
2023-03-27T17:04:48.651Z,97700.19
2023-03-27T17:07:18.118Z,97710.59
2023-03-27T17:09:46.490Z,97717.94
2023-03-27T17:12:16.476Z,97717.81
2023-03-27T17:14:48.270Z,97734.56
2023-03-27T17:17:18.898Z,97736.19
2023-03-27T17:20:06.810Z,97730.50
2023-03-27T17:22:39.047Z,97720.56
2023-03-27T17:25:18.468Z,97724.44
2023-03-27T17:27:51.353Z,97757.09
2023-03-27T17:30:36.690Z,97743.41
2023-03-27T17:33:11.231Z,97772.97
2023-03-27T17:35:46.640Z,97796.34
2023-03-27T17:38:31.915Z,97774.47
2023-03-27T17:40:59.594Z,97799.34
2023-03-27T17:43:37.269Z,97804.03
2023-03-27T17:46:14.894Z,97810.28
2023-03-27T17:48:47.718Z,97820.00
2023-03-27T17:51:27.390Z,97837.47
2023-03-27T17:53:57.885Z,97848.38
2023-03-27T17:56:32.689Z,97813.78
2023-03-27T17:59:01.140Z,97854.72
2023-03-27T18:01:29.965Z,97874.78
2023-03-27T18:04:05.781Z,97876.75
2023-03-27T18:06:41.301Z,97897.25
2023-03-27T18:09:25.065Z,97897.34
2023-03-27T18:12:03.490Z,97915.88
2023-03-27T18:14:33.918Z,97928.81
2023-03-27T18:17:10.427Z,97935.41
2023-03-27T18:19:47.561Z,97941.59
2023-03-27T18:22:27.449Z,97947.94
2023-03-27T18:25:10.122Z,97949.66
2023-03-27T18:27:41.139Z,97957.28
2023-03-27T18:30:22.328Z,97969.78
2023-03-27T18:32:52.967Z,97975.88
2023-03-27T18:35:24.537Z,97993.41
2023-03-27T18:37:56.553Z,97987.16
2023-03-27T18:40:27.141Z,97989.38
2023-03-27T18:43:03.608Z,98006.31
2023-03-27T18:45:35.644Z,98016.22
2023-03-27T18:48:18.576Z,98029.78
2023-03-27T18:51:04.357Z,98009.38
2023-03-27T18:53:35.600Z,98020.84
2023-03-27T18:56:15.407Z,98040.47
2023-03-27T18:58:48.173Z,98039.41
2023-03-27T19:01:21.462Z,98054.25
2023-03-27T19:03:53.158Z,98053.09
2023-03-27T19:06:27.481Z,98059.44
2023-03-27T19:09:08.812Z,98066.78
2023-03-27T19:11:46.633Z,98040.00
2023-03-27T19:14:38.083Z,98080.81
2023-03-27T19:20:48.310Z,98103.19
2023-03-27T19:23:47.715Z,98115.66
2023-03-27T19:26:19.549Z,98125.50
2023-03-27T19:28:52.827Z,98115.28
2023-03-27T19:31:23.523Z,98120.53
2023-03-27T19:36:59.982Z,98135.69
2023-03-27T19:39:28.164Z,98149.72
2023-03-27T19:42:01.493Z,98154.75
2023-03-27T19:44:39.556Z,98149.38
2023-03-27T19:47:22.372Z,98134.22
2023-03-27T19:49:50.211Z,98158.66
2023-03-27T19:52:42.258Z,98084.09
2023-03-27T19:55:18.686Z,98170.56
2023-03-27T19:57:52.390Z,98192.78
2023-03-27T20:00:31.610Z,98183.47
2023-03-27T20:03:04.414Z,98182.91
2023-03-27T20:05:40.991Z,98192.47
2023-03-27T20:08:11.589Z,98195.75
2023-03-27T20:10:41.597Z,98196.34
2023-03-27T20:13:09.308Z,98196.56
2023-03-27T20:15:48.860Z,98188.94
2023-03-27T20:18:20.428Z,98203.44
2023-03-27T20:20:52.781Z,98212.19
2023-03-27T20:23:35.139Z,98206.72
2023-03-27T20:26:07.723Z,98213.84
2023-03-27T20:28:48.553Z,98207.44
2023-03-27T20:31:18.765Z,98211.88
2023-03-27T20:34:01.368Z,98217.06
2023-03-27T20:36:37.183Z,98217.00
2023-03-27T20:39:20.649Z,98209.13
2023-03-27T20:41:53.764Z,98209.13
2023-03-27T20:44:21.951Z,98223.66
2023-03-27T20:46:55.179Z,98218.75
2023-03-27T20:49:40.616Z,98222.56
2023-03-27T20:52:18.903Z,98233.75
2023-03-27T20:55:01.356Z,98243.00
2023-03-27T20:57:31.928Z,98250.06
2023-03-27T21:00:08.126Z,98246.25
2023-03-27T21:02:42.224Z,98258.41
2023-03-27T21:05:13.130Z,98268.81
2023-03-27T21:07:43.374Z,98276.19
2023-03-27T21:10:14.294Z,98276.50
2023-03-27T21:12:57.500Z,98276.78
2023-03-27T21:15:30.212Z,98274.88
2023-03-27T21:18:00.219Z,98270.47
2023-03-27T21:20:29.482Z,98286.63
2023-03-27T21:25:53.315Z,98290.66
2023-03-27T21:28:23.657Z,98300.19
2023-03-27T21:30:53.462Z,98289.53
2023-03-27T21:33:21.202Z,98308.81
2023-03-27T21:35:56.173Z,98288.78
2023-03-27T21:38:39.495Z,98275.41
2023-03-27T21:41:17.597Z,98290.38
2023-03-27T21:43:47.756Z,98319.66
2023-03-27T21:46:19.309Z,98317.00
2023-03-27T21:48:54.203Z,98335.81
2023-03-27T21:51:24.073Z,98338.91
2023-03-27T21:53:58.816Z,98347.88
2023-03-27T21:56:36.378Z,98346.13
2023-03-27T21:59:19.200Z,98342.09
2023-03-27T22:01:50.695Z,98317.75
2023-03-27T22:04:21.894Z,98350.97
2023-03-27T22:06:53.043Z,98356.31
2023-03-27T22:09:20.804Z,98358.06
2023-03-27T22:11:54.434Z,98350.34
2023-03-27T22:14:24.930Z,98357.56
2023-03-27T22:17:05.909Z,98355.56
2023-03-27T22:19:35.905Z,98372.19
2023-03-27T22:22:09.985Z,98378.00
2023-03-27T22:24:47.316Z,98381.16
2023-03-27T22:27:23.219Z,98385.47
2023-03-27T22:29:52.175Z,98386.22
2023-03-27T22:32:21.249Z,98371.53
2023-03-27T22:35:06.162Z,98387.28
2023-03-27T22:37:41.847Z,98396.72
2023-03-27T22:40:11.041Z,98400.25
2023-03-27T22:42:46.161Z,98405.06
2023-03-27T22:45:16.530Z,98404.13
2023-03-27T22:47:47.363Z,98409.06
2023-03-27T22:50:26.877Z,98410.88
2023-03-27T22:53:04.866Z,98404.28
2023-03-27T22:55:36.196Z,98414.31
2023-03-27T22:58:06.564Z,98414.72
2023-03-27T23:00:36.654Z,98419.63
2023-03-27T23:03:07.137Z,98425.78
2023-03-27T23:05:43.441Z,98428.94
2023-03-27T23:08:17.509Z,98422.66
2023-03-27T23:10:47.586Z,98414.31
2023-03-27T23:13:18.532Z,98430.91
2023-03-27T23:15:50.867Z,98431.84
2023-03-27T23:18:24.652Z,98444.16
2023-03-27T23:21:08.954Z,98451.75
2023-03-27T23:23:46.382Z,98449.03
2023-03-27T23:26:22.493Z,98448.97
2023-03-27T23:28:54.149Z,98458.63
2023-03-27T23:31:33.730Z,98454.66
2023-03-27T23:34:07.112Z,98452.53
2023-03-27T23:36:50.054Z,98458.53
2023-03-27T23:39:27.521Z,98444.41
2023-03-27T23:41:57.916Z,98462.78
2023-03-27T23:44:36.402Z,98468.19
2023-03-27T23:47:09.702Z,98464.00
2023-03-27T23:49:40.925Z,98454.41
2023-03-27T23:52:13.987Z,98460.97
2023-03-27T23:57:30.476Z,98461.56
2023-03-27T23:59:58.172Z,98478.50
